METAR Data
IDs: Format: Raw Decoded Include TAF

Data at: 1726 UTC 23 Jan 2019

METAR for:KTZR (Columbus/Bolton Fld, OH, US)
Text:KTZR 231650Z 17009KT 7SM SCT039 BKN070 OVC080 04/04 A2984
Temperature: 4.0°C ( 39°F)
Dewpoint: 4.0°C ( 39°F) [RH = 100%]
Pressure (altimeter):29.84 inches Hg (1010.6 mb)
Winds:from the S (170 degrees) at 10 MPH (9 knots; 4.6 m/s)
Visibility: 7 sm ( 11 km)
Ceiling:7000 feet AGL
Clouds: scattered clouds at 3900 feet AGL, broken clouds at 7000 feet AGL, overcast cloud deck at 8000 feet AGL